Time;durP1;ratioP1;P1;durP2;ratioP2;P2;SDS_P1;SDS_P2;PMS_P1;PMS_P2;Temp;Humidity;BMP_temperature;BMP_pressure;BME280_temperature;BME280_humidity;BME280_pressure;Samples;Min_cycle;Max_cycle;Signal;HPM_P1;HPM_P2
2021/10/20 00:00:52;;;;;;;4.15;2.17;;;;;;;;;;5067622;28;20538;-91
2021/10/20 00:03:18;;;;;;;4.78;2.30;;;;;;;;;;5034229;28;20045;-91
2021/10/20 00:05:43;;;;;;;6.40;2.72;;;;;;;;;;5034462;28;20017;-91
2021/10/20 00:08:08;;;;;;;4.75;2.55;;;;;;;;;;5064212;28;20021;-92
2021/10/20 00:10:34;;;;;;;5.72;2.60;;;;;;;;;;5035814;28;20119;-92
2021/10/20 00:13:00;;;;;;;4.63;2.58;;;;;;;;;;5035947;28;20052;-92
2021/10/20 00:15:25;;;;;;;3.95;2.20;;;;;;;;;;5068193;28;20028;-91
2021/10/20 00:17:50;;;;;;;4.97;2.45;;;;;;;;;;5034717;28;20025;-92
2021/10/20 00:20:19;;;;;;;4.55;2.22;;;;;;;;;;5034271;28;20029;-91
2021/10/20 00:22:44;;;;;;;4.88;2.55;;;;;;;;;;5034495;28;20029;-91
2021/10/20 00:25:10;;;;;;;5.35;2.53;;;;;;;;;;5067829;28;20022;-91
2021/10/20 00:27:35;;;;;;;4.78;2.47;;;;;;;;;;5034760;28;20021;-91
2021/10/20 00:30:01;;;;;;;5.72;2.40;;;;;;;;;;5067907;28;20031;-91
2021/10/20 00:32:26;;;;;;;4.00;2.17;;;;;;;;;;5031501;28;20018;-91
2021/10/20 00:34:51;;;;;;;6.82;2.25;;;;;;;;;;5023286;28;20057;-91
2021/10/20 00:37:16;;;;;;;6.15;2.13;;;;;;;;;;5028525;28;20124;-91
2021/10/20 00:39:42;;;;;;;7.88;2.38;;;;;;;;;;5061787;28;20028;-92
2021/10/20 00:42:07;;;;;;;4.35;2.50;;;;;;;;;;5052563;28;20118;-92
2021/10/20 00:44:48;;;;;;;9.27;2.25;;;;;;;;;;5021778;28;20053;-91
2021/10/20 00:47:13;;;;;;;5.50;2.40;;;;;;;;;;5066604;28;20017;-92
2021/10/20 00:49:38;;;;;;;6.53;2.67;;;;;;;;;;5067238;28;20354;-91
2021/10/20 00:52:03;;;;;;;6.97;2.80;;;;;;;;;;5034343;28;20075;-92
2021/10/20 00:54:29;;;;;;;4.47;2.55;;;;;;;;;;5020001;28;20449;-91
2021/10/20 00:56:54;;;;;;;7.32;2.88;;;;;;;;;;5067278;28;20063;-91
2021/10/20 00:59:19;;;;;;;6.13;2.70;;;;;;;;;;5052929;28;20097;-91
2021/10/20 01:01:45;;;;;;;4.43;2.55;;;;;;;;;;5067079;28;20104;-92
2021/10/20 01:04:10;;;;;;;7.00;2.35;;;;;;;;;;5034320;28;20018;-91
2021/10/20 01:06:36;;;;;;;4.65;2.45;;;;;;;;;;5067015;28;20021;-92
2021/10/20 01:09:02;;;;;;;5.90;2.47;;;;;;;;;;5033789;28;20029;-92
2021/10/20 01:11:27;;;;;;;6.82;2.78;;;;;;;;;;5066812;28;20025;-92
2021/10/20 01:13:53;;;;;;;6.32;2.75;;;;;;;;;;5067084;28;20023;-91
2021/10/20 01:16:19;;;;;;;4.20;2.20;;;;;;;;;;5033592;28;20080;-92
2021/10/20 01:18:44;;;;;;;5.38;2.67;;;;;;;;;;5033604;28;20053;-91
2021/10/20 01:21:17;;;;;;;5.15;2.70;;;;;;;;;;5033672;28;20084;-92
2021/10/20 01:23:42;;;;;;;4.93;2.55;;;;;;;;;;5020013;28;20017;-92
2021/10/20 01:26:07;;;;;;;5.10;2.55;;;;;;;;;;5064565;28;20549;-92
2021/10/20 01:28:32;;;;;;;4.68;2.47;;;;;;;;;;5034425;28;20017;-92
2021/10/20 01:30:58;;;;;;;5.65;2.88;;;;;;;;;;5033440;28;20027;-91
2021/10/20 01:33:23;;;;;;;5.32;2.10;;;;;;;;;;5034165;28;20021;-91
2021/10/20 01:35:48;;;;;;;6.30;2.55;;;;;;;;;;5066558;28;20044;-91
2021/10/20 01:38:13;;;;;;;4.57;2.58;;;;;;;;;;5033007;28;20030;-92
2021/10/20 01:40:39;;;;;;;6.10;2.70;;;;;;;;;;5033173;28;20082;-91
2021/10/20 01:43:04;;;;;;;4.65;2.83;;;;;;;;;;5033202;28;20045;-91
2021/10/20 01:45:29;;;;;;;8.25;2.90;;;;;;;;;;5033302;28;20025;-91
2021/10/20 01:47:54;;;;;;;4.72;2.80;;;;;;;;;;5066389;28;20009;-92
2021/10/20 01:50:19;;;;;;;7.22;2.85;;;;;;;;;;5032827;28;20025;-91
2021/10/20 01:52:45;;;;;;;5.38;2.50;;;;;;;;;;5034180;28;20048;-92
2021/10/20 01:55:14;;;;;;;5.32;3.10;;;;;;;;;;5034341;28;20068;-91
2021/10/20 01:57:39;;;;;;;6.93;2.78;;;;;;;;;;5033103;28;20028;-91
2021/10/20 02:00:06;;;;;;;6.78;3.17;;;;;;;;;;5042042;28;20025;-91
2021/10/20 02:02:31;;;;;;;8.02;2.75;;;;;;;;;;5032042;28;20435;-91
2021/10/20 02:04:56;;;;;;;5.60;2.90;;;;;;;;;;5066393;28;20053;-91
2021/10/20 02:07:21;;;;;;;10.55;3.08;;;;;;;;;;5033975;28;20045;-92
2021/10/20 02:09:47;;;;;;;6.25;3.30;;;;;;;;;;5034017;28;20343;-92
2021/10/20 02:12:12;;;;;;;8.18;3.15;;;;;;;;;;5034213;28;20024;-92
2021/10/20 02:14:37;;;;;;;8.25;2.90;;;;;;;;;;5033788;28;20013;-91
2021/10/20 02:17:03;;;;;;;7.13;2.88;;;;;;;;;;5032617;28;20068;-91
2021/10/20 02:19:28;;;;;;;5.03;3.00;;;;;;;;;;5032705;28;20029;-91
2021/10/20 02:21:54;;;;;;;6.03;3.05;;;;;;;;;;5066339;28;20022;-91
2021/10/20 02:24:20;;;;;;;9.05;3.22;;;;;;;;;;5018959;28;20014;-91
2021/10/20 02:26:45;;;;;;;7.45;2.95;;;;;;;;;;5032847;28;20016;-91
2021/10/20 02:29:11;;;;;;;8.15;3.03;;;;;;;;;;5032678;28;20018;-92
2021/10/20 02:31:36;;;;;;;5.78;3.03;;;;;;;;;;5066298;28;20024;-91
2021/10/20 02:34:01;;;;;;;4.63;2.80;;;;;;;;;;5057962;28;20116;-91
2021/10/20 02:36:26;;;;;;;7.63;2.65;;;;;;;;;;5032649;28;20424;-91
2021/10/20 02:38:52;;;;;;;6.57;3.30;;;;;;;;;;5033807;28;20021;-91
2021/10/20 02:41:17;;;;;;;6.13;3.10;;;;;;;;;;5032471;28;20018;-91
2021/10/20 02:43:42;;;;;;;6.95;3.05;;;;;;;;;;5032847;28;20116;-91
2021/10/20 02:46:07;;;;;;;7.00;3.60;;;;;;;;;;5032914;28;20519;-91
2021/10/20 02:48:32;;;;;;;4.70;2.80;;;;;;;;;;5032717;28;20385;-90
2021/10/20 02:50:58;;;;;;;6.43;3.13;;;;;;;;;;5066220;28;20022;-91
2021/10/20 02:53:23;;;;;;;8.10;3.30;;;;;;;;;;5032634;28;20022;-92
2021/10/20 02:55:49;;;;;;;8.48;3.58;;;;;;;;;;5065772;28;20017;-91
2021/10/20 02:58:14;;;;;;;7.57;3.28;;;;;;;;;;5065584;28;20025;-92
2021/10/20 03:00:39;;;;;;;8.52;3.17;;;;;;;;;;5033655;28;20024;-91
2021/10/20 03:03:04;;;;;;;8.23;3.35;;;;;;;;;;5032735;28;20056;-91
2021/10/20 03:05:30;;;;;;;5.57;3.17;;;;;;;;;;5032505;28;20028;-91
2021/10/20 03:07:56;;;;;;;7.90;3.30;;;;;;;;;;5033314;28;20013;-91
2021/10/20 03:10:21;;;;;;;7.57;3.45;;;;;;;;;;5034541;28;20377;-91
2021/10/20 03:12:47;;;;;;;6.63;3.72;;;;;;;;;;5035901;28;20032;-91
2021/10/20 03:15:12;;;;;;;10.98;3.83;;;;;;;;;;5035832;28;20022;-91
2021/10/20 03:17:37;;;;;;;7.30;3.28;;;;;;;;;;5035787;28;20029;-91
2021/10/20 03:20:08;;;;;;;7.45;3.00;;;;;;;;;;5069104;28;20025;-91
2021/10/20 03:22:33;;;;;;;9.68;3.00;;;;;;;;;;5035862;28;20093;-92
2021/10/20 03:24:58;;;;;;;6.10;3.33;;;;;;;;;;5022180;28;20026;-91
2021/10/20 03:27:24;;;;;;;7.03;3.78;;;;;;;;;;5035474;28;20017;-91
2021/10/20 03:29:50;;;;;;;6.18;3.50;;;;;;;;;;5068810;28;20523;-92
2021/10/20 03:32:15;;;;;;;7.60;3.60;;;;;;;;;;5037069;28;20017;-91
2021/10/20 03:34:40;;;;;;;7.20;3.83;;;;;;;;;;5035612;28;20022;-92
2021/10/20 03:37:05;;;;;;;7.32;3.33;;;;;;;;;;5069082;28;20080;-91
2021/10/20 03:39:30;;;;;;;9.05;3.45;;;;;;;;;;5035284;28;20380;-91
2021/10/20 03:41:55;;;;;;;9.15;3.28;;;;;;;;;;5036209;28;20024;-91
2021/10/20 03:44:21;;;;;;;13.65;3.90;;;;;;;;;;5068537;28;20028;-92
2021/10/20 03:46:46;;;;;;;5.82;3.33;;;;;;;;;;5035447;28;20436;-91
2021/10/20 03:49:11;;;;;;;5.97;3.78;;;;;;;;;;5068161;28;20024;-92
2021/10/20 03:51:36;;;;;;;10.27;3.58;;;;;;;;;;5068454;28;20030;-91
2021/10/20 03:54:01;;;;;;;6.45;3.13;;;;;;;;;;5034890;28;20032;-91
2021/10/20 03:56:27;;;;;;;7.50;3.60;;;;;;;;;;5036177;28;20473;-92
2021/10/20 03:58:52;;;;;;;5.47;3.28;;;;;;;;;;5034959;28;20024;-91
2021/10/20 04:01:17;;;;;;;5.35;3.28;;;;;;;;;;5068383;28;20021;-91
2021/10/20 04:03:42;;;;;;;7.63;3.70;;;;;;;;;;5036369;28;20017;-92
2021/10/20 04:06:08;;;;;;;8.93;4.00;;;;;;;;;;5068311;28;20020;-91
2021/10/20 04:08:33;;;;;;;6.40;4.00;;;;;;;;;;5068240;28;20021;-91
2021/10/20 04:10:58;;;;;;;8.82;3.70;;;;;;;;;;5032087;28;20073;-91
2021/10/20 04:13:23;;;;;;;7.60;3.45;;;;;;;;;;5023818;28;20018;-91
2021/10/20 04:15:49;;;;;;;9.02;3.83;;;;;;;;;;5034671;28;20057;-91
2021/10/20 04:18:15;;;;;;;6.18;3.13;;;;;;;;;;5036067;28;20103;-91
2021/10/20 04:20:40;;;;;;;6.30;3.70;;;;;;;;;;5067763;28;20485;-92
2021/10/20 04:23:05;;;;;;;8.90;3.80;;;;;;;;;;5062356;28;20041;-92
2021/10/20 04:25:30;;;;;;;11.75;3.75;;;;;;;;;;5025414;28;20547;-92
2021/10/20 04:27:56;;;;;;;9.95;3.92;;;;;;;;;;5034433;28;20014;-92
2021/10/20 04:30:22;;;;;;;9.50;4.07;;;;;;;;;;5067298;28;20477;-91
2021/10/20 04:32:47;;;;;;;7.95;4.07;;;;;;;;;;5034246;28;20021;-92
2021/10/20 04:35:12;;;;;;;7.55;3.83;;;;;;;;;;5067843;28;20056;-91
2021/10/20 04:37:39;;;;;;;6.05;3.47;;;;;;;;;;5035335;28;20100;-91
2021/10/20 04:40:05;;;;;;;7.65;3.22;;;;;;;;;;5067136;28;20545;-92
2021/10/20 04:42:31;;;;;;;6.85;3.20;;;;;;;;;;5067545;28;20079;-91
2021/10/20 04:44:56;;;;;;;5.63;3.15;;;;;;;;;;5067420;28;20029;-91
2021/10/20 04:47:21;;;;;;;6.72;3.40;;;;;;;;;;5034005;28;20029;-92
2021/10/20 04:49:47;;;;;;;11.00;3.45;;;;;;;;;;5025010;28;20022;-91
2021/10/20 04:52:12;;;;;;;6.20;3.60;;;;;;;;;;5030180;28;20021;-91
2021/10/20 04:54:37;;;;;;;9.75;3.92;;;;;;;;;;5033945;28;20036;-91
2021/10/20 04:57:03;;;;;;;12.15;4.65;;;;;;;;;;5033912;28;20083;-90
2021/10/20 04:59:31;;;;;;;10.63;4.40;;;;;;;;;;5033710;28;20125;-91
2021/10/20 05:01:57;;;;;;;6.63;3.88;;;;;;;;;;5054133;28;20469;-92
2021/10/20 05:04:22;;;;;;;8.02;4.40;;;;;;;;;;5032125;28;20108;-92
2021/10/20 05:06:47;;;;;;;6.60;3.38;;;;;;;;;;5067219;28;20465;-92
2021/10/20 05:09:12;;;;;;;8.13;4.45;;;;;;;;;;5034842;28;20017;-92
2021/10/20 05:11:37;;;;;;;8.55;4.05;;;;;;;;;;5033554;28;20013;-89
2021/10/20 05:14:02;;;;;;;7.65;3.53;;;;;;;;;;5067025;28;20026;-91
2021/10/20 05:16:28;;;;;;;6.60;3.58;;;;;;;;;;5033533;28;20457;-91
2021/10/20 05:18:53;;;;;;;9.02;4.22;;;;;;;;;;5066837;28;20021;-91
2021/10/20 05:21:18;;;;;;;7.13;4.13;;;;;;;;;;5066438;28;20105;-91
2021/10/20 05:23:44;;;;;;;13.60;4.88;;;;;;;;;;5033532;28;20366;-91
2021/10/20 05:26:09;;;;;;;7.07;4.18;;;;;;;;;;5033369;28;20032;-91
2021/10/20 05:28:34;;;;;;;7.65;3.85;;;;;;;;;;5034467;28;20017;-91
2021/10/20 05:30:59;;;;;;;11.00;4.20;;;;;;;;;;5033129;28;20021;-91
2021/10/20 05:33:25;;;;;;;8.02;4.45;;;;;;;;;;5027556;28;20022;-92
2021/10/20 05:35:50;;;;;;;6.40;3.67;;;;;;;;;;5013580;28;20032;-92
2021/10/20 05:38:15;;;;;;;8.65;3.88;;;;;;;;;;5030497;28;20017;-91
2021/10/20 05:40:40;;;;;;;5.88;3.70;;;;;;;;;;5066264;28;20121;-92
2021/10/20 05:43:06;;;;;;;6.38;3.78;;;;;;;;;;5033103;28;20145;-91
2021/10/20 05:45:31;;;;;;;9.85;4.18;;;;;;;;;;5032937;28;20036;-92
2021/10/20 05:47:56;;;;;;;5.50;3.40;;;;;;;;;;5066546;28;20057;-92
2021/10/20 05:50:22;;;;;;;8.82;4.00;;;;;;;;;;5033384;28;20116;-92
2021/10/20 05:52:47;;;;;;;10.35;3.95;;;;;;;;;;5033088;28;20389;-91
2021/10/20 05:55:13;;;;;;;7.38;3.70;;;;;;;;;;5033283;28;20026;-92
2021/10/20 05:57:38;;;;;;;9.05;4.35;;;;;;;;;;5061570;28;20775;-92
2021/10/20 06:00:09;;;;;;;9.55;3.97;;;;;;;;;;5029942;28;20089;-91
2021/10/20 06:02:34;;;;;;;7.07;4.32;;;;;;;;;;5032894;28;20075;-91
2021/10/20 06:04:59;;;;;;;9.93;4.57;;;;;;;;;;5032939;28;20030;-91
2021/10/20 06:07:24;;;;;;;7.95;4.32;;;;;;;;;;5032860;28;20021;-91
2021/10/20 06:09:49;;;;;;;10.20;5.28;;;;;;;;;;5066061;28;20072;-91
2021/10/20 06:12:15;;;;;;;10.98;4.75;;;;;;;;;;5034044;28;20377;-92
2021/10/20 06:14:40;;;;;;;8.60;3.80;;;;;;;;;;5032782;28;20492;-91
2021/10/20 06:17:05;;;;;;;8.60;4.05;;;;;;;;;;5032898;28;20014;-91
2021/10/20 06:19:30;;;;;;;9.15;4.45;;;;;;;;;;5032737;28;20642;-91
2021/10/20 06:21:57;;;;;;;7.60;4.30;;;;;;;;;;5066208;28;20021;-91
2021/10/20 06:24:22;;;;;;;9.02;4.30;;;;;;;;;;5031620;28;20032;-91
2021/10/20 06:26:47;;;;;;;6.93;4.07;;;;;;;;;;5019766;28;20021;-91
2021/10/20 06:29:14;;;;;;;11.98;4.50;;;;;;;;;;5032675;28;20013;-91
2021/10/20 06:31:39;;;;;;;10.10;4.95;;;;;;;;;;5033724;28;20013;-91
2021/10/20 06:34:06;;;;;;;13.20;5.03;;;;;;;;;;5032892;28;20468;-91
2021/10/20 06:36:32;;;;;;;8.55;4.50;;;;;;;;;;5032608;28;20113;-91
2021/10/20 06:38:58;;;;;;;9.02;4.72;;;;;;;;;;5032636;28;20049;-90
2021/10/20 06:41:23;;;;;;;8.63;5.03;;;;;;;;;;5065712;28;20495;-91
2021/10/20 06:43:48;;;;;;;9.45;4.93;;;;;;;;;;5033534;28;20052;-92
2021/10/20 06:46:13;;;;;;;9.43;5.28;;;;;;;;;;5051507;28;20018;-92
2021/10/20 06:48:39;;;;;;;8.38;4.53;;;;;;;;;;5034828;28;20377;-91
2021/10/20 06:51:09;;;;;;;9.43;4.35;;;;;;;;;;5024253;28;20054;-91
2021/10/20 06:53:34;;;;;;;11.38;4.75;;;;;;;;;;5035952;28;20076;-92
2021/10/20 06:56:00;;;;;;;8.32;5.15;;;;;;;;;;5032133;28;20053;-91
2021/10/20 06:58:25;;;;;;;7.22;4.85;;;;;;;;;;5035345;28;20017;-91
2021/10/20 07:00:51;;;;;;;10.35;4.97;;;;;;;;;;5069425;28;20495;-91
2021/10/20 07:03:16;;;;;;;7.38;5.03;;;;;;;;;;5035525;28;20025;-91
2021/10/20 07:05:41;;;;;;;8.90;4.80;;;;;;;;;;5031136;28;20028;-92
2021/10/20 07:08:07;;;;;;;8.63;4.82;;;;;;;;;;5034511;28;20108;-91
2021/10/20 07:10:32;;;;;;;9.95;4.63;;;;;;;;;;5034418;28;20033;-92
2021/10/20 07:12:57;;;;;;;13.65;4.40;;;;;;;;;;5031163;28;20085;-92
2021/10/20 07:15:22;;;;;;;10.90;5.30;;;;;;;;;;5059367;28;20031;-92
2021/10/20 07:17:47;;;;;;;10.18;5.10;;;;;;;;;;5035605;28;20070;-92
2021/10/20 07:20:13;;;;;;;9.55;5.40;;;;;;;;;;5035502;28;20389;-92
2021/10/20 07:22:39;;;;;;;10.15;5.53;;;;;;;;;;5035186;28;20025;-91
2021/10/20 07:25:07;;;;;;;11.52;5.97;;;;;;;;;;5036494;28;20024;-91
2021/10/20 07:27:34;;;;;;;9.77;5.70;;;;;;;;;;5068441;28;20419;-92
2021/10/20 07:29:59;;;;;;;10.60;5.28;;;;;;;;;;5068316;28;20029;-86
2021/10/20 07:32:25;;;;;;;9.10;5.05;;;;;;;;;;5035034;28;20107;-86
2021/10/20 07:34:51;;;;;;;6.75;3.78;;;;;;;;;;5034367;28;20025;-86
2021/10/20 07:37:23;;;;;;;14.55;4.72;;;;;;;;;;5037010;28;20028;-86
2021/10/20 07:39:48;;;;;;;9.38;5.45;;;;;;;;;;5063240;28;20108;-86
2021/10/20 07:42:13;;;;;;;9.55;5.22;;;;;;;;;;5034180;28;20045;-87
2021/10/20 07:44:38;;;;;;;9.45;5.05;;;;;;;;;;5033964;28;20079;-87
2021/10/20 07:47:03;;;;;;;9.90;5.22;;;;;;;;;;5033669;28;20025;-87
2021/10/20 07:49:29;;;;;;;8.77;5.25;;;;;;;;;;5035098;28;20064;-87
2021/10/20 07:51:57;;;;;;;10.15;6.05;;;;;;;;;;5061273;28;20026;-86
2021/10/20 07:54:26;;;;;;;12.25;5.78;;;;;;;;;;5032146;28;20120;-87
2021/10/20 07:56:52;;;;;;;11.80;5.97;;;;;;;;;;5028057;28;20025;-86
2021/10/20 07:59:17;;;;;;;13.52;5.38;;;;;;;;;;5032641;28;20064;-86
2021/10/20 08:01:42;;;;;;;12.50;6.05;;;;;;;;;;5027912;28;20049;-86
2021/10/20 08:04:07;;;;;;;14.52;6.15;;;;;;;;;;5033974;28;20021;-86
2021/10/20 08:06:33;;;;;;;14.00;6.47;;;;;;;;;;5029997;28;20040;-87
2021/10/20 08:08:58;;;;;;;10.70;5.65;;;;;;;;;;5026648;28;20014;-87
2021/10/20 08:11:23;;;;;;;12.75;6.13;;;;;;;;;;5033679;28;20059;-86
2021/10/20 08:13:48;;;;;;;15.20;5.80;;;;;;;;;;5023176;28;20489;-85
2021/10/20 08:16:13;;;;;;;5.80;3.85;;;;;;;;;;5026422;28;20020;-85
2021/10/20 08:18:39;;;;;;;12.85;5.25;;;;;;;;;;5047234;28;20377;-86
2021/10/20 08:21:04;;;;;;;11.60;6.30;;;;;;;;;;5033108;28;20040;-86
2021/10/20 08:23:29;;;;;;;10.13;5.13;;;;;;;;;;5031201;28;20096;-86
2021/10/20 08:25:54;;;;;;;9.02;5.15;;;;;;;;;;5027437;28;20477;-86
2021/10/20 08:28:20;;;;;;;11.68;5.55;;;;;;;;;;5030236;28;20013;-86
2021/10/20 08:30:45;;;;;;;8.77;5.63;;;;;;;;;;5032972;28;20384;-86
2021/10/20 08:33:10;;;;;;;11.63;3.65;;;;;;;;;;5026069;28;20492;-86
2021/10/20 08:35:37;;;;;;;8.23;5.07;;;;;;;;;;5029661;28;20029;-86
2021/10/20 08:38:03;;;;;;;8.50;5.25;;;;;;;;;;5065324;28;20025;-86
2021/10/20 08:40:41;;;;;;;9.40;5.10;;;;;;;;;;5032543;28;20032;-85
2021/10/20 08:43:06;;;;;;;12.18;5.78;;;;;;;;;;5057143;28;20032;-85
2021/10/20 08:45:32;;;;;;;9.70;6.10;;;;;;;;;;5033012;28;20453;-85
2021/10/20 08:47:57;;;;;;;11.60;5.68;;;;;;;;;;5032773;28;20084;-86
2021/10/20 08:50:27;;;;;;;12.57;6.15;;;;;;;;;;5033073;28;20112;-86
2021/10/20 08:52:53;;;;;;;11.18;5.28;;;;;;;;;;5033071;28;20120;-86
2021/10/20 08:55:20;;;;;;;10.00;5.32;;;;;;;;;;5066327;28;20056;-86
2021/10/20 08:57:45;;;;;;;8.93;5.22;;;;;;;;;;5033124;28;20021;-86
2021/10/20 09:00:11;;;;;;;10.90;5.70;;;;;;;;;;5032497;28;20469;-86
2021/10/20 09:02:40;;;;;;;9.27;5.50;;;;;;;;;;5032564;28;20438;-86
2021/10/20 09:05:05;;;;;;;9.50;5.50;;;;;;;;;;5034044;28;20029;-86
2021/10/20 09:07:30;;;;;;;7.70;5.15;;;;;;;;;;5033478;28;20014;-86
2021/10/20 09:09:56;;;;;;;9.73;5.18;;;;;;;;;;5032239;28;20036;-86
2021/10/20 09:12:26;;;;;;;7.30;4.22;;;;;;;;;;5032773;28;20401;-86
2021/10/20 09:14:56;;;;;;;9.40;5.25;;;;;;;;;;5032697;28;20382;-86
2021/10/20 09:17:21;;;;;;;7.63;5.22;;;;;;;;;;5034183;28;20032;-86
2021/10/20 09:19:46;;;;;;;9.00;5.55;;;;;;;;;;5062734;28;20029;-86
2021/10/20 09:22:12;;;;;;;9.68;5.25;;;;;;;;;;5032659;28;20029;-86
2021/10/20 09:24:38;;;;;;;8.10;5.20;;;;;;;;;;5032549;28;20021;-85
2021/10/20 09:27:04;;;;;;;9.63;5.32;;;;;;;;;;5032418;28;20023;-86
2021/10/20 09:29:31;;;;;;;8.38;4.88;;;;;;;;;;5031813;28;20021;-86
2021/10/20 09:31:56;;;;;;;11.20;5.10;;;;;;;;;;5033321;28;20438;-86
2021/10/20 09:34:21;;;;;;;9.77;5.22;;;;;;;;;;5032551;28;20068;-87
2021/10/20 09:36:50;;;;;;;9.45;5.32;;;;;;;;;;5033610;28;20016;-86
2021/10/20 09:39:15;;;;;;;6.95;4.13;;;;;;;;;;5042343;28;20091;-86
2021/10/20 09:41:41;;;;;;;9.40;5.63;;;;;;;;;;5031678;28;20469;-87
2021/10/20 09:44:07;;;;;;;7.72;5.68;;;;;;;;;;5032160;28;20438;-86
2021/10/20 09:46:38;;;;;;;8.27;5.10;;;;;;;;;;5032430;28;20148;-86
2021/10/20 09:49:13;;;;;;;7.95;4.88;;;;;;;;;;5065499;28;20392;-86
2021/10/20 09:51:38;;;;;;;7.72;3.95;;;;;;;;;;5029276;28;20028;-86
2021/10/20 09:54:18;;;;;;;11.90;6.05;;;;;;;;;;5032009;28;20025;-86
2021/10/20 09:56:50;;;;;;;16.60;5.00;;;;;;;;;;5032286;28;20017;-86
2021/10/20 09:59:16;;;;;;;7.72;4.50;;;;;;;;;;5062393;28;20021;-87
2021/10/20 10:01:41;;;;;;;9.73;5.07;;;;;;;;;;5065811;28;20087;-86
2021/10/20 10:04:07;;;;;;;9.23;5.05;;;;;;;;;;5039833;28;20433;-86
2021/10/20 10:06:32;;;;;;;7.75;5.03;;;;;;;;;;5032025;28;20432;-86
2021/10/20 10:08:58;;;;;;;8.25;5.18;;;;;;;;;;5032098;28;20089;-86
2021/10/20 10:11:23;;;;;;;8.63;4.82;;;;;;;;;;5032080;28;20022;-86
2021/10/20 10:13:52;;;;;;;8.90;5.18;;;;;;;;;;5034081;28;20025;-86
2021/10/20 10:16:22;;;;;;;9.48;5.28;;;;;;;;;;5031670;28;20030;-86
2021/10/20 10:18:48;;;;;;;13.07;5.10;;;;;;;;;;5033428;28;20100;-86
2021/10/20 10:21:28;;;;;;;9.25;5.40;;;;;;;;;;5021814;28;20100;-86
2021/10/20 10:23:55;;;;;;;9.88;5.35;;;;;;;;;;5069041;28;20116;-86
2021/10/20 10:26:20;;;;;;;9.07;5.47;;;;;;;;;;5035940;28;20496;-86
2021/10/20 10:29:03;;;;;;;9.77;4.90;;;;;;;;;;5040423;28;20037;-86
2021/10/20 10:31:33;;;;;;;8.75;4.82;;;;;;;;;;5066687;28;20032;-86
2021/10/20 10:33:58;;;;;;;9.50;4.22;;;;;;;;;;5039750;28;20036;-87
2021/10/20 10:36:24;;;;;;;9.95;5.45;;;;;;;;;;5035757;28;20029;-87
2021/10/20 10:38:49;;;;;;;8.23;5.20;;;;;;;;;;5036014;28;20021;-88
2021/10/20 10:41:22;;;;;;;9.23;5.00;;;;;;;;;;5069127;28;20029;-87
2021/10/20 10:44:02;;;;;;;11.40;5.45;;;;;;;;;;5069135;28;20040;-88
2021/10/20 10:46:30;;;;;;;8.85;4.22;;;;;;;;;;5036205;28;20469;-87
2021/10/20 10:48:58;;;;;;;10.55;5.45;;;;;;;;;;5035466;28;20014;-88
2021/10/20 10:51:24;;;;;;;7.30;4.63;;;;;;;;;;5035692;28;20033;-87
2021/10/20 10:53:54;;;;;;;8.65;5.03;;;;;;;;;;5035798;28;20025;-87
2021/10/20 10:56:20;;;;;;;9.75;5.22;;;;;;;;;;5041120;28;20025;-87
2021/10/20 10:58:55;;;;;;;9.70;5.60;;;;;;;;;;5041621;28;20067;-87
2021/10/20 11:01:40;;;;;;;8.73;5.18;;;;;;;;;;5035061;28;20083;-87
2021/10/20 11:04:22;;;;;;;9.02;5.05;;;;;;;;;;5034978;28;20099;-87
2021/10/20 11:06:49;;;;;;;7.25;4.20;;;;;;;;;;5043151;28;20013;-88
2021/10/20 11:09:15;;;;;;;11.57;5.72;;;;;;;;;;5038633;28;20037;-87
2021/10/20 11:11:47;;;;;;;7.78;4.93;;;;;;;;;;5035061;28;20473;-87
2021/10/20 11:14:13;;;;;;;;;;;;;;;;;;5035438;28;20026;-87
2021/10/20 11:16:38;;;;;;;8.68;5.03;;;;;;;;;;5036662;28;20273;-87
2021/10/20 11:19:04;;;;;;;10.38;6.35;;;;;;;;;;5041682;28;20274;-87
2021/10/20 11:21:31;;;;;;;8.40;5.50;;;;;;;;;;5035160;28;20067;-87
2021/10/20 11:23:57;;;;;;;10.88;5.30;;;;;;;;;;5035004;28;20024;-87
2021/10/20 11:26:22;;;;;;;9.80;4.90;;;;;;;;;;5068151;28;20013;-88
2021/10/20 11:28:47;;;;;;;8.68;5.35;;;;;;;;;;5067999;28;20024;-88
2021/10/20 11:31:12;;;;;;;8.35;5.53;;;;;;;;;;5047650;28;20026;-87
2021/10/20 11:33:37;;;;;;;9.82;5.90;;;;;;;;;;5046509;28;20024;-87
2021/10/20 11:36:03;;;;;;;8.38;5.38;;;;;;;;;;5060480;28;20033;-87
2021/10/20 11:38:35;;;;;;;9.13;4.90;;;;;;;;;;5033716;28;20487;-88
2021/10/20 11:41:00;;;;;;;8.40;5.43;;;;;;;;;;5034733;28;20052;-87
2021/10/20 11:43:27;;;;;;;14.95;5.65;;;;;;;;;;5053404;28;20056;-88
2021/10/20 11:45:53;;;;;;;8.52;5.38;;;;;;;;;;5065638;28;20393;-89
2021/10/20 11:48:19;;;;;;;8.55;5.63;;;;;;;;;;5030988;28;20071;-87
2021/10/20 11:50:49;;;;;;;9.10;5.13;;;;;;;;;;5035143;28;20024;-87
2021/10/20 11:53:14;;;;;;;13.07;6.05;;;;;;;;;;5070091;28;20481;-88
2021/10/20 11:55:40;;;;;;;11.75;5.18;;;;;;;;;;5030609;28;20082;-87
2021/10/20 11:58:06;;;;;;;9.70;4.88;;;;;;;;;;5031820;28;20026;-87
2021/10/20 12:00:34;;;;;;;8.05;4.75;;;;;;;;;;5024541;28;20528;-86
2021/10/20 12:03:00;;;;;;;10.57;5.95;;;;;;;;;;5031269;28;20025;-87
2021/10/20 12:05:25;;;;;;;9.02;5.20;;;;;;;;;;5054582;28;20171;-87
2021/10/20 12:07:50;;;;;;;11.85;5.47;;;;;;;;;;5031780;28;20021;-86
2021/10/20 12:10:18;;;;;;;7.82;4.95;;;;;;;;;;5022651;28;20017;-85
2021/10/20 12:12:43;;;;;;;12.25;5.63;;;;;;;;;;5026491;28;20399;-85
2021/10/20 12:15:14;;;;;;;10.18;6.10;;;;;;;;;;5029868;28;20112;-85
2021/10/20 12:17:39;;;;;;;9.90;5.43;;;;;;;;;;5030125;28;20025;-86
2021/10/20 12:20:05;;;;;;;8.25;5.03;;;;;;;;;;5032841;28;20469;-87
2021/10/20 12:22:35;;;;;;;8.48;5.28;;;;;;;;;;5025200;28;20017;-86
2021/10/20 12:25:00;;;;;;;12.85;5.50;;;;;;;;;;5040635;28;20022;-86
2021/10/20 12:27:25;;;;;;;10.88;5.32;;;;;;;;;;5023581;28;20511;-87
2021/10/20 12:29:55;;;;;;;11.75;5.82;;;;;;;;;;5059639;28;20076;-87
2021/10/20 12:32:25;;;;;;;9.15;5.32;;;;;;;;;;5064258;28;20044;-89
2021/10/20 12:34:51;;;;;;;9.07;5.43;;;;;;;;;;5029558;28;20112;-87
2021/10/20 12:37:16;;;;;;;8.80;5.72;;;;;;;;;;5033601;28;20376;-88
2021/10/20 12:39:42;;;;;;;8.50;5.55;;;;;;;;;;5033571;28;20021;-89
2021/10/20 12:42:07;;;;;;;9.40;5.18;;;;;;;;;;5030574;28;20060;-88
2021/10/20 12:44:34;;;;;;;8.48;5.22;;;;;;;;;;5055753;28;20022;-89
2021/10/20 12:47:00;;;;;;;12.27;5.72;;;;;;;;;;5032911;28;20024;-89
2021/10/20 12:49:32;;;;;;;12.07;6.22;;;;;;;;;;5027970;28;20108;-88
2021/10/20 12:51:57;;;;;;;13.82;5.60;;;;;;;;;;5034585;28;20017;-86
2021/10/20 12:54:23;;;;;;;10.35;5.72;;;;;;;;;;5041029;28;20087;-86
2021/10/20 12:56:54;;;;;;;12.35;5.93;;;;;;;;;;5033256;28;20542;-87
2021/10/20 12:59:20;;;;;;;14.75;5.40;;;;;;;;;;5025416;28;20013;-87
2021/10/20 13:01:45;;;;;;;11.75;5.88;;;;;;;;;;5064117;28;20021;-88
2021/10/20 13:04:11;;;;;;;8.68;5.53;;;;;;;;;;5036447;28;20029;-89
2021/10/20 13:06:37;;;;;;;7.68;4.40;;;;;;;;;;5032444;28;20025;-89
2021/10/20 13:09:03;;;;;;;12.18;5.53;;;;;;;;;;5065972;28;20037;-88
2021/10/20 13:11:28;;;;;;;10.73;6.15;;;;;;;;;;5066463;28;20009;-86
2021/10/20 13:13:53;;;;;;;13.77;6.15;;;;;;;;;;5032943;28;20024;-86
2021/10/20 13:16:19;;;;;;;12.57;6.05;;;;;;;;;;5029715;28;20044;-86
2021/10/20 13:18:44;;;;;;;11.02;5.75;;;;;;;;;;5032819;28;20055;-87
2021/10/20 13:21:09;;;;;;;13.77;6.15;;;;;;;;;;5018723;28;20021;-86
2021/10/20 13:23:36;;;;;;;9.73;4.93;;;;;;;;;;5033025;28;20466;-87
2021/10/20 13:26:02;;;;;;;12.15;4.03;;;;;;;;;;5057859;28;20036;-88
2021/10/20 13:28:28;;;;;;;12.63;5.95;;;;;;;;;;5031232;28;20032;-86
2021/10/20 13:30:53;;;;;;;10.00;5.78;;;;;;;;;;5025430;28;20025;-88
2021/10/20 13:33:18;;;;;;;10.65;5.32;;;;;;;;;;5032823;28;20014;-88
2021/10/20 13:35:44;;;;;;;11.70;6.10;;;;;;;;;;5032953;28;20026;-90
2021/10/20 13:38:10;;;;;;;13.18;6.25;;;;;;;;;;5066149;28;20017;-87
2021/10/20 13:40:36;;;;;;;11.25;5.88;;;;;;;;;;5029402;28;20033;-88
2021/10/20 13:43:02;;;;;;;12.23;5.65;;;;;;;;;;5022921;28;20021;-85
2021/10/20 13:45:27;;;;;;;11.20;5.20;;;;;;;;;;5066840;28;20018;-87
2021/10/20 13:47:53;;;;;;;12.23;5.57;;;;;;;;;;5034174;28;20017;-88
2021/10/20 13:50:18;;;;;;;10.07;5.85;;;;;;;;;;5031857;28;20035;-87
2021/10/20 13:52:43;;;;;;;13.70;5.82;;;;;;;;;;5036009;28;20481;-87
2021/10/20 13:55:09;;;;;;;13.27;5.32;;;;;;;;;;5031943;28;20029;-87
2021/10/20 13:57:35;;;;;;;10.23;5.75;;;;;;;;;;5033073;28;20025;-87
2021/10/20 14:00:01;;;;;;;10.35;5.07;;;;;;;;;;5031955;28;20031;-87
2021/10/20 14:02:27;;;;;;;10.45;5.22;;;;;;;;;;5035154;28;20366;-87
2021/10/20 14:04:54;;;;;;;8.63;5.32;;;;;;;;;;5032811;28;20029;-87
2021/10/20 14:07:20;;;;;;;13.65;5.20;;;;;;;;;;5030398;28;20025;-87
2021/10/20 14:09:45;;;;;;;16.60;5.65;;;;;;;;;;5063637;28;20555;-87
2021/10/20 14:12:10;;;;;;;10.65;5.47;;;;;;;;;;5046868;28;20392;-87
2021/10/20 14:14:35;;;;;;;10.02;4.90;;;;;;;;;;5030359;28;20099;-88
2021/10/20 14:17:01;;;;;;;8.05;4.20;;;;;;;;;;5036687;28;20377;-87
2021/10/20 14:19:26;;;;;;;8.98;4.75;;;;;;;;;;5032854;28;20115;-89
2021/10/20 14:21:51;;;;;;;7.82;4.72;;;;;;;;;;5026330;28;20481;-89
2021/10/20 14:24:16;;;;;;;11.43;5.15;;;;;;;;;;5032382;28;20027;-88
2021/10/20 14:26:41;;;;;;;9.35;5.13;;;;;;;;;;5032401;28;20014;-87
2021/10/20 14:29:07;;;;;;;9.23;5.28;;;;;;;;;;5021065;28;20417;-87
2021/10/20 14:31:37;;;;;;;9.90;5.03;;;;;;;;;;5054602;28;20029;-87
2021/10/20 14:34:03;;;;;;;8.57;4.78;;;;;;;;;;5030098;28;20025;-87